sensor_id;sensor_type;location;lat;lon;timestamp;pressure;altitude;pressure_sealevel;temperature;humidity
56632;BME280;42503;39.928;-75.152;2023-01-10T00:05:55;101435.41;;;17.83;40.22
56632;BME280;42503;39.928;-75.152;2023-01-10T00:16:07;101426.84;;;17.85;40.02
56632;BME280;42503;39.928;-75.152;2023-01-10T00:26:09;101427.53;;;17.92;39.84
56632;BME280;42503;39.928;-75.152;2023-01-10T00:36:11;101425.91;;;17.96;39.94
56632;BME280;42503;39.928;-75.152;2023-01-10T00:46:12;101428.81;;;18.01;40.15
56632;BME280;42503;39.928;-75.152;2023-01-10T00:56:14;101428.91;;;18.06;40.23
56632;BME280;42503;39.928;-75.152;2023-01-10T01:06:15;101422.59;;;18.11;40.12
56632;BME280;42503;39.928;-75.152;2023-01-10T01:16:17;101391.63;;;17.97;39.85
56632;BME280;42503;39.928;-75.152;2023-01-10T01:26:18;101423.63;;;18.21;39.49
56632;BME280;42503;39.928;-75.152;2023-01-10T01:36:19;101428.66;;;18.24;39.84
56632;BME280;42503;39.928;-75.152;2023-01-10T01:46:22;101423.47;;;18.28;39.44
56632;BME280;42503;39.928;-75.152;2023-01-10T01:56:45;101401.19;;;18.06;39.75
56632;BME280;42503;39.928;-75.152;2023-01-10T02:06:50;101429.91;;;18.34;39.50
56632;BME280;42503;39.928;-75.152;2023-01-10T02:16:53;101433.28;;;18.36;39.29
56632;BME280;42503;39.928;-75.152;2023-01-10T02:27:08;101383.50;;;18.07;39.13
56632;BME280;42503;39.928;-75.152;2023-01-10T02:47:35;101459.31;;;18.35;39.45
56632;BME280;42503;39.928;-75.152;2023-01-10T03:08:55;101462.00;;;18.29;39.50
56632;BME280;42503;39.928;-75.152;2023-01-10T03:19:11;101460.19;;;18.23;38.93
56632;BME280;42503;39.928;-75.152;2023-01-10T03:29:20;101475.09;;;18.34;38.98
56632;BME280;42503;39.928;-75.152;2023-01-10T03:39:32;101476.75;;;18.35;39.06
56632;BME280;42503;39.928;-75.152;2023-01-10T03:49:40;101478.44;;;18.36;38.77
56632;BME280;42503;39.928;-75.152;2023-01-10T03:59:43;101475.34;;;18.33;38.81
56632;BME280;42503;39.928;-75.152;2023-01-10T04:09:45;101452.91;;;18.17;39.17
56632;BME280;42503;39.928;-75.152;2023-01-10T04:19:46;101488.69;;;18.36;38.97
56632;BME280;42503;39.928;-75.152;2023-01-10T04:29:47;101498.94;;;18.35;39.00
56632;BME280;42503;39.928;-75.152;2023-01-10T04:39:49;101487.00;;;18.35;38.94
56632;BME280;42503;39.928;-75.152;2023-01-10T04:49:50;101504.22;;;18.37;39.04
56632;BME280;42503;39.928;-75.152;2023-01-10T04:59:51;101499.09;;;18.28;38.94
56632;BME280;42503;39.928;-75.152;2023-01-10T05:09:53;101505.81;;;18.33;39.28
56632;BME280;42503;39.928;-75.152;2023-01-10T05:19:54;101500.91;;;18.23;38.93
56632;BME280;42503;39.928;-75.152;2023-01-10T05:29:55;101510.50;;;18.32;38.92
56632;BME280;42503;39.928;-75.152;2023-01-10T05:39:57;101508.00;;;18.31;39.10
56632;BME280;42503;39.928;-75.152;2023-01-10T05:50:01;101525.09;;;18.27;38.89
56632;BME280;42503;39.928;-75.152;2023-01-10T06:00:04;101508.31;;;18.17;39.08
56632;BME280;42503;39.928;-75.152;2023-01-10T06:10:10;101548.97;;;18.28;38.96
56632;BME280;42503;39.928;-75.152;2023-01-10T06:20:13;101555.00;;;18.25;39.22
56632;BME280;42503;39.928;-75.152;2023-01-10T06:30:15;101567.19;;;18.24;38.78
56632;BME280;42503;39.928;-75.152;2023-01-10T06:40:16;101577.66;;;18.22;38.89
56632;BME280;42503;39.928;-75.152;2023-01-10T06:50:21;101578.28;;;18.13;38.97
56632;BME280;42503;39.928;-75.152;2023-01-10T07:00:22;101563.22;;;17.92;38.88
56632;BME280;42503;39.928;-75.152;2023-01-10T07:10:24;101603.47;;;18.11;39.00
56632;BME280;42503;39.928;-75.152;2023-01-10T07:20:26;101623.44;;;18.13;38.96
56632;BME280;42503;39.928;-75.152;2023-01-10T07:30:27;101628.97;;;18.13;38.81
56632;BME280;42503;39.928;-75.152;2023-01-10T07:40:29;101577.53;;;17.89;38.84
56632;BME280;42503;39.928;-75.152;2023-01-10T07:50:34;101565.75;;;17.82;38.76
56632;BME280;42503;39.928;-75.152;2023-01-10T08:00:35;101607.22;;;18.05;38.60
56632;BME280;42503;39.928;-75.152;2023-01-10T08:10:38;101606.63;;;18.03;38.75
56632;BME280;42503;39.928;-75.152;2023-01-10T08:20:43;101568.00;;;17.73;38.64
56632;BME280;42503;39.928;-75.152;2023-01-10T08:30:49;101618.69;;;17.97;38.96
56632;BME280;42503;39.928;-75.152;2023-01-10T08:40:58;101610.88;;;17.94;38.73
56632;BME280;42503;39.928;-75.152;2023-01-10T08:51:07;101625.19;;;17.91;39.14
56632;BME280;42503;39.928;-75.152;2023-01-10T09:01:09;101579.59;;;17.70;38.65
56632;BME280;42503;39.928;-75.152;2023-01-10T09:11:12;101629.41;;;17.93;38.65
56632;BME280;42503;39.928;-75.152;2023-01-10T09:21:16;101620.41;;;17.74;39.05
56632;BME280;42503;39.928;-75.152;2023-01-10T09:31:18;101640.84;;;17.85;38.80
56632;BME280;42503;39.928;-75.152;2023-01-10T09:51:39;101654.34;;;17.82;39.04
56632;BME280;42503;39.928;-75.152;2023-01-10T10:01:41;101668.19;;;17.82;38.80
56632;BME280;42503;39.928;-75.152;2023-01-10T10:11:52;101680.81;;;17.77;38.73
56632;BME280;42503;39.928;-75.152;2023-01-10T10:42:18;101686.22;;;17.72;38.97
56632;BME280;42503;39.928;-75.152;2023-01-10T10:52:32;101695.84;;;17.70;38.98
56632;BME280;42503;39.928;-75.152;2023-01-10T11:02:44;101727.59;;;17.67;38.56
56632;BME280;42503;39.928;-75.152;2023-01-10T11:12:49;101731.00;;;17.69;38.70
56632;BME280;42503;39.928;-75.152;2023-01-10T11:22:52;101748.31;;;17.65;38.90
56632;BME280;42503;39.928;-75.152;2023-01-10T11:32:59;101746.88;;;17.62;38.74
56632;BME280;42503;39.928;-75.152;2023-01-10T11:43:26;101748.91;;;17.55;38.78
56632;BME280;42503;39.928;-75.152;2023-01-10T11:53:35;101742.88;;;17.58;38.94
56632;BME280;42503;39.928;-75.152;2023-01-10T12:03:38;101758.66;;;17.58;38.90
56632;BME280;42503;39.928;-75.152;2023-01-10T12:13:49;101738.91;;;17.54;38.97
56632;BME280;42503;39.928;-75.152;2023-01-10T12:23:53;101764.66;;;17.54;38.73
56632;BME280;42503;39.928;-75.152;2023-01-10T12:33:58;101755.41;;;17.61;38.43
56632;BME280;42503;39.928;-75.152;2023-01-10T12:44:04;101774.06;;;17.65;38.21
56632;BME280;42503;39.928;-75.152;2023-01-10T12:54:16;101768.88;;;17.57;38.58
56632;BME280;42503;39.928;-75.152;2023-01-10T13:04:22;101791.91;;;17.69;38.72
56632;BME280;42503;39.928;-75.152;2023-01-10T13:14:58;101804.22;;;17.73;38.66
56632;BME280;42503;39.928;-75.152;2023-01-10T13:25:00;101811.94;;;17.83;38.68
56632;BME280;42503;39.928;-75.152;2023-01-10T13:35:17;101831.91;;;17.85;38.97
56632;BME280;42503;39.928;-75.152;2023-01-10T14:05:34;101842.63;;;18.05;38.33
56632;BME280;42503;39.928;-75.152;2023-01-10T14:25:40;101838.19;;;18.16;38.35
56632;BME280;42503;39.928;-75.152;2023-01-10T14:35:49;101827.47;;;18.19;38.28
56632;BME280;42503;39.928;-75.152;2023-01-10T14:46:05;101824.72;;;18.19;38.76
56632;BME280;42503;39.928;-75.152;2023-01-10T14:56:40;101821.44;;;18.22;38.58
56632;BME280;42503;39.928;-75.152;2023-01-10T15:07:11;101837.22;;;18.22;38.72
56632;BME280;42503;39.928;-75.152;2023-01-10T15:17:17;101842.28;;;18.25;38.41
56632;BME280;42503;39.928;-75.152;2023-01-10T15:27:20;101801.69;;;18.07;38.35
56632;BME280;42503;39.928;-75.152;2023-01-10T15:37:25;101828.28;;;18.32;38.32
56632;BME280;42503;39.928;-75.152;2023-01-10T15:47:49;101795.19;;;18.13;38.42
56632;BME280;42503;39.928;-75.152;2023-01-10T15:57:51;101820.59;;;18.34;38.19
56632;BME280;42503;39.928;-75.152;2023-01-10T16:07:52;101798.19;;;18.35;38.30
56632;BME280;42503;39.928;-75.152;2023-01-10T16:17:53;101775.19;;;18.35;37.96
56632;BME280;42503;39.928;-75.152;2023-01-10T16:27:56;101771.94;;;18.38;37.94
56632;BME280;42503;39.928;-75.152;2023-01-10T16:38:00;101743.13;;;18.39;37.79
56632;BME280;42503;39.928;-75.152;2023-01-10T16:48:05;101690.75;;;18.14;37.70
56632;BME280;42503;39.928;-75.152;2023-01-10T16:58:16;101726.41;;;18.34;37.85
56632;BME280;42503;39.928;-75.152;2023-01-10T17:08:21;101718.31;;;18.32;37.73
56632;BME280;42503;39.928;-75.152;2023-01-10T17:18:23;101727.72;;;18.31;37.77
56632;BME280;42503;39.928;-75.152;2023-01-10T17:28:29;101715.19;;;18.28;37.80
56632;BME280;42503;39.928;-75.152;2023-01-10T17:38:34;101689.91;;;18.25;37.87
56632;BME280;42503;39.928;-75.152;2023-01-10T17:48:37;101677.38;;;18.22;38.29
56632;BME280;42503;39.928;-75.152;2023-01-10T17:58:38;101641.06;;;18.07;37.98
56632;BME280;42503;39.928;-75.152;2023-01-10T18:08:40;101661.75;;;18.16;38.31
56632;BME280;42503;39.928;-75.152;2023-01-10T18:18:41;101606.53;;;17.98;38.46
56632;BME280;42503;39.928;-75.152;2023-01-10T18:28:46;101630.34;;;18.11;38.23
56632;BME280;42503;39.928;-75.152;2023-01-10T18:38:48;101625.03;;;18.09;38.27
56632;BME280;42503;39.928;-75.152;2023-01-10T18:48:51;101612.53;;;18.07;38.41
56632;BME280;42503;39.928;-75.152;2023-01-10T18:58:52;101604.78;;;18.09;38.72
56632;BME280;42503;39.928;-75.152;2023-01-10T19:08:55;101600.09;;;18.09;38.38
56632;BME280;42503;39.928;-75.152;2023-01-10T19:19:02;101602.28;;;18.07;38.61
56632;BME280;42503;39.928;-75.152;2023-01-10T19:29:04;101598.91;;;18.05;38.78
56632;BME280;42503;39.928;-75.152;2023-01-10T19:39:05;101547.47;;;17.81;38.55
56632;BME280;42503;39.928;-75.152;2023-01-10T19:49:08;101582.78;;;18.02;38.79
56632;BME280;42503;39.928;-75.152;2023-01-10T19:59:10;101589.44;;;18.01;38.62
56632;BME280;42503;39.928;-75.152;2023-01-10T20:09:14;101578.47;;;17.94;38.59
56632;BME280;42503;39.928;-75.152;2023-01-10T20:19:19;101596.28;;;17.98;38.52
56632;BME280;42503;39.928;-75.152;2023-01-10T20:29:24;101605.69;;;17.97;38.70
56632;BME280;42503;39.928;-75.152;2023-01-10T20:39:25;101605.91;;;17.96;38.72
56632;BME280;42503;39.928;-75.152;2023-01-10T20:49:29;101623.03;;;17.93;38.72
56632;BME280;42503;39.928;-75.152;2023-01-10T20:59:31;101623.03;;;17.93;38.62
56632;BME280;42503;39.928;-75.152;2023-01-10T21:09:33;101622.94;;;17.88;38.59
56632;BME280;42503;39.928;-75.152;2023-01-10T21:19:35;101591.41;;;17.65;38.72
56632;BME280;42503;39.928;-75.152;2023-01-10T21:29:36;101638.44;;;17.89;38.58
56632;BME280;42503;39.928;-75.152;2023-01-10T21:39:37;101537.19;;;17.17;38.87
56632;BME280;42503;39.928;-75.152;2023-01-10T21:49:41;101670.22;;;17.86;38.79
56632;BME280;42503;39.928;-75.152;2023-01-10T21:59:42;101671.31;;;17.85;38.67
56632;BME280;42503;39.928;-75.152;2023-01-10T22:09:43;101652.41;;;17.70;38.73
56632;BME280;42503;39.928;-75.152;2023-01-10T22:19:45;101684.78;;;17.82;39.11
56632;BME280;42503;39.928;-75.152;2023-01-10T22:29:46;101692.25;;;17.81;38.70
56632;BME280;42503;39.928;-75.152;2023-01-10T22:39:53;101686.00;;;17.74;38.93
56632;BME280;42503;39.928;-75.152;2023-01-10T22:49:57;101718.25;;;17.80;39.08
56632;BME280;42503;39.928;-75.152;2023-01-10T23:00:01;101729.59;;;17.78;38.89
56632;BME280;42503;39.928;-75.152;2023-01-10T23:10:15;101730.66;;;17.77;39.04
56632;BME280;42503;39.928;-75.152;2023-01-10T23:20:22;101758.84;;;17.74;39.33
56632;BME280;42503;39.928;-75.152;2023-01-10T23:30:23;101753.28;;;17.74;39.13
56632;BME280;42503;39.928;-75.152;2023-01-10T23:40:29;101758.84;;;17.74;38.83
56632;BME280;42503;39.928;-75.152;2023-01-10T23:50:30;101761.78;;;17.73;38.72
